createdAt,value
2023-04-12T00:02:03.113Z,9.16
2023-04-12T00:07:10.167Z,9.64
2023-04-12T00:12:13.015Z,9.26
2023-04-12T00:17:18.981Z,9.23
2023-04-12T00:22:21.803Z,9.26
2023-04-12T00:27:25.776Z,9.32
2023-04-12T00:32:29.995Z,9.14
2023-04-12T00:37:33.441Z,9.20
2023-04-12T00:42:37.987Z,9.12
2023-04-12T00:47:43.361Z,8.95
2023-04-12T00:52:46.519Z,9.15
2023-04-12T00:57:49.404Z,9.16
2023-04-12T01:02:54.293Z,9.31
2023-04-12T01:08:13.319Z,9.26
2023-04-12T01:13:27.679Z,9.10
2023-04-12T01:18:40.815Z,9.13
2023-04-12T01:24:03.616Z,8.92
2023-04-12T01:29:12.205Z,8.86
2023-04-12T01:34:15.987Z,8.91
2023-04-12T01:39:18.847Z,8.86
2023-04-12T01:44:22.958Z,8.80
2023-04-12T01:49:30.333Z,8.83
2023-04-12T01:54:38.858Z,8.90
2023-04-12T01:59:44.697Z,8.36
2023-04-12T02:04:49.198Z,8.44
2023-04-12T02:09:51.969Z,8.36
2023-04-12T02:14:58.192Z,8.50
2023-04-12T02:20:01.163Z,8.24
2023-04-12T02:25:06.405Z,8.32
2023-04-12T02:30:12.380Z,8.46
2023-04-12T02:35:17.915Z,8.22
2023-04-12T02:40:23.217Z,8.27
2023-04-12T02:45:27.948Z,8.24
2023-04-12T02:50:32.630Z,8.08
2023-04-12T02:55:44.971Z,8.24
2023-04-12T03:00:50.958Z,8.22
2023-04-12T03:06:00.782Z,8.40
2023-04-12T03:11:03.780Z,8.55
2023-04-12T03:16:23.922Z,8.57
2023-04-12T03:21:33.185Z,8.39
2023-04-12T03:26:39.049Z,8.48
2023-04-12T03:31:51.108Z,8.52
2023-04-12T03:36:55.486Z,8.62
2023-04-12T03:42:32.313Z,8.74
2023-04-12T03:47:55.800Z,8.27
2023-04-12T04:05:47.254Z,8.39
2023-04-12T04:11:38.555Z,8.30
2023-04-12T04:16:58.936Z,8.37
2023-04-12T04:22:19.855Z,8.47
2023-04-12T04:27:38.283Z,8.45
2023-04-12T04:32:43.208Z,8.58
2023-04-12T04:37:46.815Z,8.54
2023-04-12T04:42:55.321Z,8.49
2023-04-12T04:48:01.389Z,8.53
2023-04-12T04:53:04.256Z,8.67
2023-04-12T04:58:10.325Z,8.50
2023-04-12T05:03:16.637Z,8.43
2023-04-12T05:08:19.527Z,8.60
2023-04-12T05:13:25.878Z,8.41
2023-04-12T05:18:29.319Z,8.56
2023-04-12T05:23:36.060Z,8.80
2023-04-12T05:28:41.203Z,8.82
2023-04-12T05:33:46.466Z,9.16
2023-04-12T05:38:49.331Z,8.74
2023-04-12T05:43:53.676Z,9.56
2023-04-12T05:48:57.319Z,9.39
2023-04-12T05:54:01.261Z,9.46
2023-04-12T05:59:11.491Z,9.54
2023-04-12T06:04:15.977Z,9.86
2023-04-12T06:09:19.812Z,10.25
2023-04-12T06:14:27.116Z,11.90
2023-04-12T06:19:29.880Z,14.15
2023-04-12T06:24:35.880Z,14.99
2023-04-12T06:29:40.074Z,17.26
2023-04-12T06:34:43.567Z,18.70
2023-04-12T06:39:49.735Z,20.69
2023-04-12T06:44:53.987Z,20.55
2023-04-12T06:49:58.141Z,21.96
2023-04-12T06:55:00.948Z,22.83
2023-04-12T07:00:06.153Z,25.05
2023-04-12T07:05:09.547Z,23.60
2023-04-12T07:10:12.631Z,20.51
2023-04-12T07:15:16.875Z,19.16
2023-04-12T07:20:19.613Z,17.34
2023-04-12T07:25:22.382Z,16.64
2023-04-12T07:30:26.524Z,15.73
2023-04-12T07:35:29.273Z,15.28
2023-04-12T07:40:32.032Z,15.20
2023-04-12T07:45:37.922Z,14.69
2023-04-12T07:50:41.160Z,14.48
2023-04-12T07:55:43.920Z,14.20
2023-04-12T08:00:48.631Z,14.11
2023-04-12T08:05:54.164Z,14.68
2023-04-12T08:10:57.017Z,14.47
2023-04-12T08:16:01.678Z,14.62
2023-04-12T08:21:05.025Z,14.52
2023-04-12T08:26:07.875Z,14.55
2023-04-12T08:31:13.162Z,14.33
2023-04-12T08:36:16.620Z,14.34
2023-04-12T08:41:19.739Z,14.27
2023-04-12T08:46:27.039Z,14.38
2023-04-12T08:51:30.578Z,13.72
2023-04-12T08:56:33.862Z,13.73
2023-04-12T09:01:41.410Z,14.16
2023-04-12T09:06:44.281Z,14.55
2023-04-12T09:11:47.259Z,14.93
2023-04-12T09:16:52.764Z,15.87
2023-04-12T09:21:57.001Z,15.93
2023-04-12T09:27:04.795Z,15.35
2023-04-12T09:32:10.623Z,15.57
2023-04-12T09:37:18.085Z,15.59
2023-04-12T09:47:40.363Z,16.19
2023-04-12T09:52:43.661Z,15.52
2023-04-12T09:57:46.785Z,15.84
2023-04-12T10:02:53.219Z,15.83
2023-04-12T10:07:59.224Z,15.76
2023-04-12T10:13:06.799Z,15.91
2023-04-12T10:18:12.410Z,16.60
2023-04-12T10:23:15.639Z,16.39
2023-04-12T10:28:21.501Z,16.60
2023-04-12T10:33:31.506Z,16.82
2023-04-12T10:38:47.194Z,16.78
2023-04-12T10:43:53.227Z,16.98
2023-04-12T10:49:09.880Z,15.97
2023-04-12T10:54:36.046Z,15.97
2023-04-12T10:59:56.870Z,15.20
2023-04-12T11:05:09.707Z,15.94
2023-04-12T11:10:27.587Z,15.44
2023-04-12T11:15:33.996Z,15.46
2023-04-12T11:20:40.646Z,14.83
2023-04-12T11:25:45.002Z,14.62
2023-04-12T11:30:53.204Z,14.80
2023-04-12T11:35:57.469Z,14.41
2023-04-12T11:41:00.397Z,14.51
2023-04-12T11:46:03.534Z,14.03
2023-04-12T11:51:24.836Z,14.21
2023-04-12T11:56:29.492Z,14.05
2023-04-12T12:01:33.930Z,14.57
2023-04-12T12:06:38.523Z,14.54
2023-04-12T12:11:41.746Z,15.64
2023-04-12T12:16:53.487Z,15.12
2023-04-12T12:22:10.968Z,15.08
2023-04-12T12:27:14.088Z,14.84
2023-04-12T12:32:19.758Z,14.63
2023-04-12T12:37:26.636Z,14.81
2023-04-12T12:42:29.585Z,15.20
2023-04-12T12:47:32.710Z,15.01
2023-04-12T12:52:37.051Z,14.17
2023-04-12T12:57:39.847Z,14.41
2023-04-12T13:02:42.865Z,14.77
2023-04-12T13:07:47.590Z,14.95
2023-04-12T13:12:52.838Z,15.22
2023-04-12T13:17:57.049Z,15.78
2023-04-12T13:23:01.583Z,14.91
2023-04-12T13:28:04.510Z,15.15
2023-04-12T13:33:07.346Z,14.74
2023-04-12T13:38:11.623Z,14.75
2023-04-12T13:43:14.380Z,14.85
2023-04-12T13:48:17.354Z,14.74
2023-04-12T13:53:21.519Z,15.09
2023-04-12T13:58:25.799Z,14.65
2023-04-12T14:03:28.643Z,15.25
2023-04-12T14:08:32.945Z,15.60
2023-04-12T14:13:35.737Z,15.57
2023-04-12T14:18:41.906Z,15.25
2023-04-12T14:23:45.982Z,15.35
2023-04-12T14:28:49.980Z,15.39
2023-04-12T14:33:53.565Z,15.43
2023-04-12T14:38:58.143Z,15.30
2023-04-12T14:44:01.625Z,15.43
2023-04-12T14:49:04.386Z,15.84
2023-04-12T14:54:08.493Z,15.96
2023-04-12T14:59:11.273Z,15.44
2023-04-12T15:04:14.194Z,15.46
2023-04-12T15:09:18.626Z,15.87
2023-04-12T15:14:21.437Z,16.01
2023-04-12T15:19:24.307Z,15.79
2023-04-12T15:24:30.779Z,15.81
2023-04-12T15:29:33.602Z,15.94
2023-04-12T15:34:36.615Z,15.32
2023-04-12T15:39:41.363Z,15.42
2023-04-12T15:44:45.402Z,14.93
2023-04-12T15:49:48.149Z,14.86
2023-04-12T15:54:52.321Z,14.79
2023-04-12T15:59:57.647Z,15.31
2023-04-12T16:05:00.650Z,15.26
2023-04-12T16:10:06.332Z,15.17
2023-04-12T16:15:09.700Z,15.02
2023-04-12T16:20:16.621Z,14.85
2023-04-12T16:25:22.148Z,14.75
2023-04-12T16:30:25.504Z,14.99
2023-04-12T16:35:28.428Z,15.37
2023-04-12T16:40:32.560Z,15.06
2023-04-12T16:45:35.389Z,15.24
2023-04-12T16:50:39.210Z,15.43
2023-04-12T16:55:44.696Z,14.77
2023-04-12T17:00:47.496Z,15.01
2023-04-12T17:05:50.229Z,14.61
2023-04-12T17:10:55.229Z,14.86
2023-04-12T17:15:58.129Z,14.82
2023-04-12T17:21:01.268Z,14.78
2023-04-12T17:26:06.901Z,14.58
2023-04-12T17:31:10.224Z,14.72
2023-04-12T17:36:13.938Z,14.82
2023-04-12T17:41:19.110Z,14.82
2023-04-12T17:58:56.139Z,14.86
2023-04-12T18:04:02.628Z,14.46
2023-04-12T18:09:06.282Z,15.13
2023-04-12T18:14:15.703Z,15.45
2023-04-12T18:19:21.655Z,14.81
2023-04-12T18:24:24.422Z,14.97
2023-04-12T18:29:28.627Z,14.54
2023-04-12T18:34:31.804Z,14.69
2023-04-12T18:39:35.957Z,14.80
2023-04-12T18:44:41.491Z,14.83
2023-04-12T18:49:45.755Z,15.01
2023-04-12T18:54:48.539Z,14.88
2023-04-12T18:59:52.876Z,14.80
2023-04-12T19:05:02.952Z,14.55
2023-04-12T19:10:11.242Z,14.36
2023-04-12T19:42:39.233Z,12.65
2023-04-12T19:54:35.900Z,11.85
2023-04-12T20:19:34.539Z,11.88
2023-04-12T20:24:39.458Z,11.76
2023-04-12T20:29:42.570Z,11.83
2023-04-12T20:34:48.016Z,11.86
2023-04-12T20:39:52.325Z,12.07
2023-04-12T20:44:55.065Z,12.15
2023-04-12T20:49:57.884Z,11.78
2023-04-12T20:55:02.319Z,11.67
2023-04-12T21:00:12.877Z,11.40
2023-04-12T21:05:16.772Z,11.95
2023-04-12T21:10:22.282Z,11.57
2023-04-12T21:15:25.093Z,11.26
2023-04-12T21:20:30.340Z,11.12
2023-04-12T21:25:34.938Z,11.08
2023-04-12T21:30:37.895Z,10.91
2023-04-12T21:35:40.739Z,10.83
2023-04-12T21:40:44.854Z,10.98
2023-04-12T21:45:47.620Z,10.62
2023-04-12T21:50:50.419Z,11.15
2023-04-12T21:55:54.910Z,11.18
2023-04-12T22:00:58.290Z,11.31
2023-04-12T22:06:04.704Z,11.10
2023-04-12T22:11:10.332Z,11.49
2023-04-12T22:16:13.606Z,11.23
2023-04-12T22:21:16.602Z,10.87
2023-04-12T22:26:20.690Z,11.54
2023-04-12T22:31:25.930Z,11.74
2023-04-12T22:36:29.598Z,12.01
2023-04-12T22:41:34.158Z,11.93
2023-04-12T22:46:39.169Z,11.93
2023-04-12T22:51:42.240Z,11.98
2023-04-12T22:56:46.753Z,11.72
2023-04-12T23:01:50.111Z,11.61
2023-04-12T23:06:55.299Z,11.52
2023-04-12T23:11:59.541Z,11.61
2023-04-12T23:17:02.652Z,11.27
2023-04-12T23:22:06.037Z,11.30
2023-04-12T23:27:10.509Z,11.23
2023-04-12T23:32:13.953Z,11.33
2023-04-12T23:37:16.654Z,11.27
2023-04-12T23:42:22.172Z,11.28
2023-04-12T23:47:24.988Z,11.42
2023-04-12T23:52:27.723Z,11.30
2023-04-12T23:57:33.116Z,11.12
